createdAt,value
2022-09-23T00:00:55.595Z,1023.4
2022-09-23T00:02:38.992Z,1020.1
2022-09-23T00:04:22.395Z,1015.8
2022-09-23T00:06:05.799Z,1012.3
2022-09-23T00:07:49.194Z,1009
2022-09-23T00:09:32.585Z,1008
2022-09-23T00:11:15.970Z,1009.1
2022-09-23T00:14:42.505Z,1006.2
2022-09-23T00:16:25.847Z,1004.8
2022-09-23T00:18:09.236Z,1003
2022-09-23T00:19:52.632Z,1001.4
2022-09-23T00:21:36.062Z,1000.3
2022-09-23T00:23:19.936Z,999.5
2022-09-23T00:25:02.829Z,999.5
2022-09-23T00:26:46.250Z,998.4
2022-09-23T00:31:55.462Z,994
2022-09-23T00:33:38.887Z,989.4
2022-09-23T00:35:22.243Z,989.6
2022-09-23T00:37:05.661Z,986.2
2022-09-23T00:38:49.065Z,982.3
2022-09-23T00:40:32.482Z,983.1
2022-09-23T00:42:15.835Z,979.1
2022-09-23T00:43:59.248Z,977.3
2022-09-23T00:49:08.472Z,970.7
2022-09-23T00:50:51.878Z,969.3
2022-09-23T00:52:35.293Z,971.6
2022-09-23T00:54:18.654Z,971.5
2022-09-23T00:56:02.061Z,969.8
2022-09-23T00:57:45.470Z,964.6
2022-09-23T00:59:28.889Z,964
2022-09-23T01:01:12.235Z,961.4
2022-09-23T01:02:55.697Z,956
2022-09-23T01:06:22.147Z,957
2022-09-23T01:08:05.602Z,959.7
2022-09-23T01:09:48.932Z,958.4
2022-09-23T01:11:32.304Z,957.4
2022-09-23T01:13:15.696Z,956.2
2022-09-23T01:14:59.088Z,956
2022-09-23T01:16:42.529Z,956.3
2022-09-23T01:18:25.877Z,955.3
2022-09-23T01:20:09.291Z,955.3
2022-09-23T01:23:35.753Z,953.6
2022-09-23T01:25:19.188Z,952.5
2022-09-23T01:27:02.552Z,956
2022-09-23T01:28:45.995Z,957.3
2022-09-23T01:30:29.344Z,956.3
2022-09-23T01:32:12.763Z,952.7
2022-09-23T01:33:56.235Z,948.6
2022-09-23T01:35:39.532Z,951.2
2022-09-23T01:37:22.933Z,950.3
2022-09-23T01:40:49.439Z,953.5
2022-09-23T01:42:32.811Z,952.1
2022-09-23T01:44:16.181Z,950
2022-09-23T01:45:59.645Z,950.8
2022-09-23T01:47:42.985Z,947.6
2022-09-23T01:49:26.372Z,944.7
2022-09-23T01:51:09.776Z,945.3
2022-09-23T01:52:53.164Z,943.6
2022-09-23T01:58:02.430Z,941
2022-09-23T01:59:45.801Z,940.5
2022-09-23T02:01:29.281Z,939.1
2022-09-23T02:03:12.590Z,941.1
2022-09-23T02:04:56.011Z,942.1
2022-09-23T02:06:39.387Z,939.2
2022-09-23T02:08:22.791Z,937.7
2022-09-23T02:10:06.254Z,935.8
2022-09-23T02:11:49.603Z,935.5
2022-09-23T02:15:16.043Z,932
2022-09-23T02:16:59.453Z,931.4
2022-09-23T02:18:42.828Z,927.2
2022-09-23T02:20:26.258Z,923.7
2022-09-23T02:22:09.646Z,922.1
2022-09-23T02:23:53.121Z,924.5
2022-09-23T02:25:36.441Z,922
2022-09-23T02:27:19.903Z,919.8
2022-09-23T02:29:03.214Z,922
2022-09-23T02:32:29.709Z,924.3
2022-09-23T02:34:13.083Z,924.4
2022-09-23T02:35:56.479Z,922.7
2022-09-23T02:37:39.867Z,921.6
2022-09-23T02:39:23.264Z,918.8
2022-09-23T02:41:06.662Z,916.8
2022-09-23T02:42:50.060Z,916.3
2022-09-23T02:44:33.503Z,912.2
2022-09-23T02:49:42.703Z,914.5
2022-09-23T02:51:26.106Z,913.2
2022-09-23T02:53:09.595Z,912.3
2022-09-23T02:54:52.963Z,914.5
2022-09-23T02:56:36.291Z,911.7
2022-09-23T02:58:19.704Z,909.4
2022-09-23T03:00:03.086Z,905.2
2022-09-23T03:01:46.480Z,904.8
2022-09-23T03:03:29.866Z,902.7
2022-09-23T03:05:13.575Z,902.6
2022-09-23T03:06:56.973Z,903.3
2022-09-23T03:08:40.386Z,905.3
2022-09-23T03:10:23.802Z,904.6
2022-09-23T03:12:07.170Z,904.8
2022-09-23T03:13:50.619Z,905.8
2022-09-23T03:15:33.964Z,908.2
2022-09-23T03:17:17.375Z,908.1
2022-09-23T03:19:00.742Z,908.1
2022-09-23T03:22:27.229Z,907
2022-09-23T03:24:10.652Z,905.1
2022-09-23T03:25:54.003Z,903
2022-09-23T03:27:37.408Z,900.1
2022-09-23T03:29:20.806Z,900.2
2022-09-23T03:31:04.198Z,899.6
2022-09-23T03:32:47.649Z,900.1
2022-09-23T03:34:31.023Z,900.2
2022-09-23T03:36:14.473Z,899.6
2022-09-23T03:37:58.087Z,894.5
2022-09-23T03:39:41.538Z,892
2022-09-23T03:41:24.899Z,891.1
2022-09-23T03:43:08.322Z,889.4
2022-09-23T03:44:51.661Z,886.8
2022-09-23T03:46:35.059Z,886.8
2022-09-23T03:48:18.462Z,887.6
2022-09-23T03:50:01.868Z,887.2
2022-09-23T03:55:11.101Z,884.5
2022-09-23T03:56:54.541Z,885.7
2022-09-23T03:58:37.886Z,883.1
2022-09-23T04:00:21.296Z,884
2022-09-23T04:02:04.681Z,885.4
2022-09-23T04:03:48.076Z,884.8
2022-09-23T04:05:31.554Z,882.2
2022-09-23T04:07:14.903Z,880.2
2022-09-23T04:08:58.277Z,878.7
2022-09-23T04:10:41.974Z,878
2022-09-23T04:12:25.367Z,876.3
2022-09-23T04:14:08.767Z,873.7
2022-09-23T04:15:52.197Z,872.6
2022-09-23T04:17:35.604Z,873.4
2022-09-23T04:19:18.989Z,871.7
2022-09-23T04:21:02.344Z,869.8
2022-09-23T04:22:45.737Z,868.1
2022-09-23T04:27:54.989Z,868.1
2022-09-23T04:29:38.398Z,868
2022-09-23T04:31:21.779Z,867.7
2022-09-23T04:33:05.178Z,865.3
2022-09-23T04:34:48.568Z,865.6
2022-09-23T04:36:31.984Z,864.4
2022-09-23T04:38:15.363Z,859.8
2022-09-23T04:39:58.763Z,856.3
2022-09-23T04:45:08.005Z,854
2022-09-23T04:46:51.400Z,854.6
2022-09-23T04:48:34.795Z,860.3
2022-09-23T04:50:18.184Z,863.3
2022-09-23T04:52:01.573Z,862.5
2022-09-23T04:53:44.984Z,860.1
2022-09-23T04:55:28.376Z,862.2
2022-09-23T04:57:11.760Z,860.7
2022-09-23T05:02:21.006Z,856.3
2022-09-23T05:04:04.410Z,857.2
2022-09-23T05:05:47.790Z,856.6
2022-09-23T05:07:31.200Z,855.4
2022-09-23T05:09:14.624Z,855.1
2022-09-23T05:10:57.982Z,853.4
2022-09-23T05:12:41.386Z,852.6
2022-09-23T05:14:24.786Z,850.2
2022-09-23T05:17:51.260Z,848.5
2022-09-23T05:19:34.642Z,850.6
2022-09-23T05:21:18.041Z,850.1
2022-09-23T05:23:01.446Z,850.1
2022-09-23T05:24:44.836Z,849.8
2022-09-23T05:26:28.236Z,850.3
2022-09-23T05:28:11.638Z,852.3
2022-09-23T05:29:55.027Z,850.4
2022-09-23T05:35:04.278Z,846.5
2022-09-23T05:36:47.708Z,842.5
2022-09-23T05:38:31.050Z,842.2
2022-09-23T05:40:14.464Z,843.4
2022-09-23T05:41:57.875Z,842.7
2022-09-23T05:43:41.241Z,842.1
2022-09-23T05:45:24.636Z,841.5
2022-09-23T05:47:08.069Z,839.4
2022-09-23T05:50:34.508Z,839.9
2022-09-23T05:52:17.966Z,840.2
2022-09-23T05:54:01.318Z,841.8
2022-09-23T05:55:44.824Z,838.7
2022-09-23T05:57:28.220Z,836.6
2022-09-23T05:59:11.498Z,836.5
2022-09-23T06:00:54.896Z,835.7
2022-09-23T06:02:38.348Z,833.5
2022-09-23T06:06:04.798Z,828.6
2022-09-23T06:07:48.193Z,828.6
2022-09-23T06:09:31.549Z,829.4
2022-09-23T06:11:14.960Z,829
2022-09-23T06:12:58.365Z,826.8
2022-09-23T06:14:41.773Z,826.5
2022-09-23T06:16:25.205Z,825.6
2022-09-23T06:18:08.535Z,823.3
2022-09-23T06:23:17.863Z,810.8
2022-09-23T06:25:01.163Z,596.1
2022-09-23T06:26:44.588Z,484.2
2022-09-23T06:28:28.030Z,430.2
2022-09-23T06:30:11.358Z,424.5
2022-09-23T06:31:54.785Z,426.8
2022-09-23T06:33:38.161Z,436.2
2022-09-23T06:35:21.678Z,446
2022-09-23T06:40:30.788Z,489.5
2022-09-23T06:42:14.193Z,512.4
2022-09-23T06:45:40.973Z,513
2022-09-23T06:47:24.371Z,521.2
2022-09-23T06:49:07.775Z,517.3
2022-09-23T06:50:51.164Z,512.5
2022-09-23T06:52:34.554Z,526.8
2022-09-23T06:56:01.038Z,591.5
2022-09-23T06:57:44.425Z,582.2
2022-09-23T06:59:27.827Z,609.3
2022-09-23T07:01:11.219Z,605
2022-09-23T07:02:54.612Z,601
2022-09-23T07:04:38.013Z,602.4
2022-09-23T07:06:21.427Z,608.7
2022-09-23T07:08:04.823Z,609.2
2022-09-23T07:11:31.273Z,624.5
2022-09-23T07:13:14.667Z,634.8
2022-09-23T07:14:58.136Z,653.1
2022-09-23T07:16:41.499Z,641.8
2022-09-23T07:18:24.855Z,640
2022-09-23T07:20:08.273Z,643.1
2022-09-23T07:21:51.647Z,643.8
2022-09-23T07:23:35.040Z,654.6
2022-09-23T07:28:44.290Z,648.2
2022-09-23T07:30:27.695Z,646.8
2022-09-23T07:32:11.130Z,647.6
2022-09-23T07:33:54.560Z,649.7
2022-09-23T07:35:37.880Z,653.1
2022-09-23T07:37:21.281Z,657.6
2022-09-23T07:39:04.725Z,658
2022-09-23T07:40:48.054Z,661.5
2022-09-23T07:42:31.768Z,663.2
2022-09-23T07:44:15.157Z,663.6
2022-09-23T07:45:58.554Z,666.1
2022-09-23T07:47:41.956Z,667.1
2022-09-23T07:49:25.359Z,667.2
2022-09-23T07:51:08.751Z,669.5
2022-09-23T07:52:52.157Z,671.1
2022-09-23T07:54:35.547Z,673.5
2022-09-23T07:58:02.015Z,677.4
2022-09-23T07:59:45.402Z,676.1
2022-09-23T08:01:28.797Z,673.1
2022-09-23T08:03:12.210Z,668.6
2022-09-23T08:04:55.614Z,667.5
2022-09-23T08:06:38.994Z,668.2
2022-09-23T08:08:22.391Z,669.3
2022-09-23T08:10:05.784Z,670.4
2022-09-23T08:13:32.261Z,673.2
2022-09-23T08:15:15.655Z,674.7
2022-09-23T08:16:59.043Z,674.4
2022-09-23T08:18:42.453Z,673
2022-09-23T08:20:25.848Z,670.4
2022-09-23T08:22:09.235Z,669.2
2022-09-23T08:23:52.641Z,668.8
2022-09-23T08:25:36.013Z,667.2
2022-09-23T08:29:02.522Z,663.5
2022-09-23T08:30:45.961Z,663.8
2022-09-23T08:32:29.298Z,664
2022-09-23T08:34:12.699Z,660.5
2022-09-23T08:35:56.097Z,657.3
2022-09-23T08:37:39.507Z,656.2
2022-09-23T08:39:22.885Z,656.3
2022-09-23T08:41:06.276Z,656.5
2022-09-23T08:46:15.519Z,651.6
2022-09-23T08:47:58.905Z,650.4
2022-09-23T08:49:42.309Z,648.6
2022-09-23T08:51:25.708Z,645.6
2022-09-23T08:53:09.092Z,646
2022-09-23T08:54:52.489Z,646.5
2022-09-23T08:56:35.936Z,646.4
2022-09-23T08:58:19.290Z,647.5
2022-09-23T09:03:28.515Z,644.1
2022-09-23T09:05:11.928Z,641.7
2022-09-23T09:06:55.310Z,638.8
2022-09-23T09:08:38.721Z,637.7
2022-09-23T09:10:22.100Z,638
2022-09-23T09:12:05.504Z,638.6
2022-09-23T09:13:48.918Z,645.2
2022-09-23T09:15:32.304Z,649
2022-09-23T09:20:41.642Z,654
2022-09-23T09:22:24.944Z,654.7
2022-09-23T09:24:08.325Z,656.1
2022-09-23T09:25:51.853Z,659.2
2022-09-23T09:27:35.202Z,663.2
2022-09-23T09:29:18.525Z,715.4
2022-09-23T09:31:01.914Z,706.7
2022-09-23T09:32:45.354Z,721.4
2022-09-23T09:34:28.700Z,738.1
2022-09-23T09:36:12.424Z,754.8
2022-09-23T09:37:55.811Z,746.7
2022-09-23T09:39:39.190Z,749
2022-09-23T09:41:22.600Z,754.1
2022-09-23T09:43:05.996Z,785.4
2022-09-23T09:44:49.391Z,811.4
2022-09-23T09:46:32.791Z,800.6
2022-09-23T09:48:16.179Z,797.5
2022-09-23T09:53:25.411Z,812.4
2022-09-23T09:55:08.769Z,808.1
2022-09-23T09:56:52.163Z,803.7
2022-09-23T09:58:35.545Z,801.1
2022-09-23T10:00:18.945Z,802
2022-09-23T10:02:02.353Z,800.6
2022-09-23T10:03:45.738Z,798.4
2022-09-23T10:05:29.144Z,796.6
2022-09-23T10:08:55.604Z,784.3
2022-09-23T10:10:39.008Z,779.7
2022-09-23T10:12:22.399Z,784
2022-09-23T10:14:05.790Z,789.5
2022-09-23T10:15:49.185Z,789.2
2022-09-23T10:17:32.580Z,788.4
2022-09-23T10:19:15.983Z,788.7
2022-09-23T10:20:59.373Z,786
2022-09-23T10:24:25.847Z,784.1
2022-09-23T10:26:09.239Z,783
2022-09-23T10:27:52.680Z,780.4
2022-09-23T10:29:36.040Z,778.2
2022-09-23T10:31:19.434Z,776.5
2022-09-23T10:33:02.835Z,778.6
2022-09-23T10:34:46.227Z,775.8
2022-09-23T10:36:29.619Z,773.4
2022-09-23T10:39:56.100Z,771.7
2022-09-23T10:41:39.504Z,766.1
2022-09-23T10:43:22.895Z,764.2
2022-09-23T10:45:06.286Z,762.1
2022-09-23T10:46:49.685Z,762.7
2022-09-23T10:48:33.100Z,763.1
2022-09-23T10:50:16.478Z,761.5
2022-09-23T10:51:59.877Z,759.4
2022-09-23T10:55:26.354Z,758.7
2022-09-23T10:57:09.756Z,762.4
2022-09-23T10:58:53.132Z,762
2022-09-23T11:00:36.533Z,763.3
2022-09-23T11:02:19.950Z,765.5
2022-09-23T11:04:03.341Z,762.1
2022-09-23T11:05:46.742Z,759.4
2022-09-23T11:07:30.131Z,759.1
2022-09-23T11:10:56.602Z,754.7
2022-09-23T11:12:40.010Z,755.8
2022-09-23T11:14:23.406Z,753.3
2022-09-23T11:16:06.797Z,751.2
2022-09-23T11:17:50.201Z,754.5
2022-09-23T11:19:33.589Z,755.6
2022-09-23T11:21:16.981Z,755.4
2022-09-23T11:23:00.380Z,753.4
2022-09-23T11:26:26.847Z,756
2022-09-23T11:28:10.236Z,758
2022-09-23T11:29:53.650Z,757.5
2022-09-23T11:31:37.058Z,756.7
2022-09-23T11:33:20.447Z,760.1
2022-09-23T11:35:03.832Z,764.5
2022-09-23T11:36:47.236Z,778.1
2022-09-23T11:38:30.629Z,783.7
2022-09-23T11:41:57.090Z,871.9
2022-09-23T11:43:40.529Z,870.3
2022-09-23T11:45:23.905Z,839.7
2022-09-23T11:47:07.299Z,831.2
2022-09-23T11:48:50.678Z,832
2022-09-23T11:50:34.082Z,836.8
2022-09-23T11:52:17.487Z,840.6
2022-09-23T11:54:00.881Z,841.2
2022-09-23T11:55:44.770Z,834.6
2022-09-23T11:57:28.040Z,781.8
2022-09-23T11:59:11.365Z,672.2
2022-09-23T12:00:54.883Z,664.5
2022-09-23T12:02:38.159Z,664.3
2022-09-23T12:04:21.555Z,656.1
2022-09-23T12:06:04.993Z,648.7
2022-09-23T12:11:14.927Z,622.4
2022-09-23T12:12:58.216Z,609.5
2022-09-23T12:14:41.631Z,595.7
2022-09-23T12:16:25.100Z,586
2022-09-23T12:18:08.406Z,580
2022-09-23T12:19:51.873Z,577.4
2022-09-23T12:21:35.347Z,574.2
2022-09-23T12:23:18.748Z,569.2
2022-09-23T12:25:02.306Z,550.7
2022-09-23T12:26:45.846Z,516
2022-09-23T12:28:29.252Z,499
2022-09-23T12:30:12.485Z,501.3
2022-09-23T12:31:56.039Z,500.1
2022-09-23T12:33:39.429Z,500
2022-09-23T12:35:22.843Z,505.6
2022-09-23T12:37:06.241Z,513.2
2022-09-23T12:40:32.709Z,532.5
2022-09-23T12:42:16.038Z,542.4
2022-09-23T12:43:59.508Z,550.4
2022-09-23T12:45:42.865Z,557.7
2022-09-23T12:47:26.254Z,564.8
2022-09-23T12:49:09.681Z,571.2
2022-09-23T12:50:52.977Z,579.4
2022-09-23T12:52:36.488Z,585.5
2022-09-23T12:54:20.041Z,594.1
2022-09-23T12:56:03.416Z,598.1
2022-09-23T12:57:46.971Z,610.4
2022-09-23T12:59:30.377Z,619.4
2022-09-23T13:01:13.645Z,630
2022-09-23T13:04:40.553Z,642.2
2022-09-23T13:06:23.842Z,646.2
2022-09-23T13:09:50.275Z,648.3
2022-09-23T13:11:33.811Z,651.3
2022-09-23T13:13:17.209Z,657.2
2022-09-23T13:15:00.598Z,661.3
2022-09-23T13:16:44.003Z,663.7
2022-09-23T13:18:27.414Z,669.3
2022-09-23T13:20:10.754Z,673.8
2022-09-23T13:21:54.194Z,679.5
2022-09-23T13:25:20.677Z,685.1
2022-09-23T13:27:03.926Z,683.7
2022-09-23T13:28:47.405Z,684.5
2022-09-23T13:30:30.705Z,688.4
2022-09-23T13:32:14.199Z,690.6
2022-09-23T13:33:57.666Z,694.4
2022-09-23T13:35:41.039Z,697.8
2022-09-23T13:37:24.443Z,702
2022-09-23T13:40:50.953Z,705.9
2022-09-23T13:42:34.320Z,706.4
2022-09-23T13:44:17.696Z,708
2022-09-23T13:46:01.129Z,706.5
2022-09-23T13:47:44.469Z,709.5
2022-09-23T13:49:27.903Z,714.2
2022-09-23T13:51:11.299Z,717.7
2022-09-23T13:52:54.698Z,718.4
2022-09-23T13:56:21.164Z,719.1
2022-09-23T13:58:04.554Z,718.3
2022-09-23T13:59:47.938Z,718.5
2022-09-23T14:01:31.345Z,716.8
2022-09-23T14:03:14.781Z,716.7
2022-09-23T14:04:58.130Z,720.6
2022-09-23T14:06:41.383Z,723.2
2022-09-23T14:08:24.944Z,723.2
2022-09-23T14:10:08.283Z,723.8
2022-09-23T14:11:52.032Z,726
2022-09-23T14:13:35.442Z,727
2022-09-23T14:15:18.832Z,730.3
2022-09-23T14:17:02.228Z,738.3
2022-09-23T14:18:45.613Z,744.7
2022-09-23T14:20:28.991Z,753.4
2022-09-23T14:22:12.434Z,774.5
2022-09-23T14:23:55.672Z,803
2022-09-23T14:27:22.263Z,798.4
2022-09-23T14:29:05.675Z,795.1
2022-09-23T14:30:49.090Z,792.2
2022-09-23T14:32:32.463Z,791.2
2022-09-23T14:34:15.848Z,792.1
2022-09-23T14:35:59.277Z,798.7
2022-09-23T14:37:42.672Z,806.8
2022-09-23T14:39:26.105Z,817
2022-09-23T14:42:52.498Z,854.5
2022-09-23T14:44:35.905Z,869.7
2022-09-23T14:46:19.348Z,890.1
2022-09-23T14:48:02.690Z,898.5
2022-09-23T14:49:46.165Z,910.6
2022-09-23T14:51:29.499Z,920.3
2022-09-23T14:53:12.910Z,931.5
2022-09-23T14:54:56.152Z,941.5
2022-09-23T14:58:22.746Z,963.1
2022-09-23T15:00:06.113Z,970
2022-09-23T15:01:49.434Z,976.3
2022-09-23T15:03:32.961Z,981.8
2022-09-23T15:05:16.392Z,989.4
2022-09-23T15:06:59.751Z,995.2
2022-09-23T15:08:43.139Z,1000.6
2022-09-23T15:10:26.403Z,1003.5
2022-09-23T15:13:52.922Z,1012.8
2022-09-23T15:15:36.435Z,1017.3
2022-09-23T15:17:19.816Z,1018.5
2022-09-23T15:19:03.208Z,1020.3
2022-09-23T15:20:46.619Z,1021
2022-09-23T15:22:30.011Z,1015.3
2022-09-23T15:24:13.343Z,1007.4
2022-09-23T15:25:56.799Z,1002.5
2022-09-23T15:29:23.262Z,1001.7
2022-09-23T15:31:06.529Z,1006.5
2022-09-23T15:32:50.060Z,1014.6
2022-09-23T15:34:33.455Z,1019.2
2022-09-23T15:36:16.863Z,1028.4
2022-09-23T15:38:00.236Z,1041.8
2022-09-23T15:39:43.683Z,1056.8
2022-09-23T15:41:26.999Z,1067.6
2022-09-23T15:46:36.150Z,1096
2022-09-23T15:48:19.703Z,1100.5
2022-09-23T15:50:03.082Z,1105.1
2022-09-23T15:51:46.468Z,1111.2
2022-09-23T15:53:29.884Z,1118.7
2022-09-23T15:55:13.132Z,1126.7
2022-09-23T15:56:56.643Z,1135.6
2022-09-23T15:58:40.002Z,1140.1
2022-09-23T16:02:06.412Z,1141.5
2022-09-23T16:03:50.059Z,1145.6
2022-09-23T16:05:33.217Z,1154.4
2022-09-23T16:07:16.583Z,1168.5
2022-09-23T16:09:00.104Z,1176.3
2022-09-23T16:10:43.472Z,1178.5
2022-09-23T16:12:26.774Z,1179.3
2022-09-23T16:14:10.214Z,1179.8
2022-09-23T16:17:36.653Z,1188.7
2022-09-23T16:19:20.096Z,1189.4
2022-09-23T16:21:03.428Z,1185
2022-09-23T16:22:46.836Z,1178.8
2022-09-23T16:24:30.236Z,1174.6
2022-09-23T16:26:13.624Z,1166.1
2022-09-23T16:27:57.031Z,1159.7
2022-09-23T16:29:40.522Z,1156.1
2022-09-23T16:33:06.928Z,1152.6
2022-09-23T16:34:50.285Z,1149.4
2022-09-23T16:36:33.798Z,1149.4
2022-09-23T16:38:17.073Z,1150.5
2022-09-23T16:40:00.589Z,1152.1
2022-09-23T16:41:43.885Z,1153.1
2022-09-23T16:43:27.274Z,1149
2022-09-23T16:45:10.691Z,1146.7
2022-09-23T16:50:19.929Z,1157
2022-09-23T16:52:03.303Z,1161.5
2022-09-23T16:53:46.770Z,1163.2
2022-09-23T16:55:30.113Z,1162.5
2022-09-23T16:57:17.621Z,1164.5
2022-09-23T16:58:56.895Z,1168
2022-09-23T17:00:40.393Z,1173.4
2022-09-23T17:02:23.771Z,1179.4
2022-09-23T17:07:33.025Z,1183.3
2022-09-23T17:09:16.399Z,1194.1
2022-09-23T17:10:59.785Z,1207.1
2022-09-23T17:12:43.161Z,1219.2
2022-09-23T17:14:26.606Z,1223.7
2022-09-23T17:16:09.976Z,1223.8
2022-09-23T17:17:53.306Z,1228.8
2022-09-23T17:19:36.811Z,1231.3
2022-09-23T17:24:45.978Z,1236.5
2022-09-23T17:26:29.344Z,1239.6
2022-09-23T17:28:12.727Z,1240.5
2022-09-23T17:29:56.145Z,1240.8
2022-09-23T17:31:39.611Z,1238.7
2022-09-23T17:33:22.958Z,1233.1
2022-09-23T17:35:06.387Z,1227.4
2022-09-23T17:36:49.736Z,1227.7
2022-09-23T17:40:16.189Z,1248.3
2022-09-23T17:41:59.644Z,1254.1
2022-09-23T17:43:43.047Z,1254.2
2022-09-23T17:45:26.373Z,1256.1
2022-09-23T17:47:09.771Z,1261.4
2022-09-23T17:48:53.211Z,1262.1
2022-09-23T17:50:36.575Z,1256.8
2022-09-23T17:52:20.006Z,1253.3
2022-09-23T17:55:46.429Z,1234.6
2022-09-23T17:57:29.838Z,1220.2
2022-09-23T17:59:13.254Z,1216
2022-09-23T18:00:56.623Z,1212.2
2022-09-23T18:02:40.021Z,1208.7
2022-09-23T18:04:23.442Z,1205.5
2022-09-23T18:06:06.811Z,1199
2022-09-23T18:07:50.220Z,1194.3
2022-09-23T18:11:16.682Z,1198.5
2022-09-23T18:13:00.076Z,1198.3
2022-09-23T18:14:43.520Z,1188.6
2022-09-23T18:16:26.869Z,1186.5
2022-09-23T18:18:10.290Z,1185
2022-09-23T18:19:53.674Z,1176.8
2022-09-23T18:21:37.059Z,1174.2
2022-09-23T18:23:20.526Z,1170.6
2022-09-23T18:28:29.709Z,1173.2
2022-09-23T18:30:13.139Z,1173.4
2022-09-23T18:31:56.495Z,1172.7
2022-09-23T18:33:39.873Z,1171.8
2022-09-23T18:35:23.274Z,1170.7
2022-09-23T18:37:06.788Z,1171
2022-09-23T18:38:50.109Z,1173
2022-09-23T18:40:33.453Z,1171.8
2022-09-23T18:43:59.949Z,1179.7
2022-09-23T18:45:43.360Z,1185.4
2022-09-23T18:47:26.738Z,1188.3
2022-09-23T18:49:10.139Z,1193.6
2022-09-23T18:50:53.512Z,1195.3
2022-09-23T18:52:36.918Z,1190.8
2022-09-23T18:54:20.312Z,1188.5
2022-09-23T18:56:03.727Z,1187.3
2022-09-23T18:59:30.191Z,1189.7
2022-09-23T19:01:13.577Z,1188.4
2022-09-23T19:02:56.985Z,1188.8
2022-09-23T19:04:40.424Z,1186.7
2022-09-23T19:06:23.775Z,1182.2
2022-09-23T19:08:07.269Z,1184.8
2022-09-23T19:09:50.566Z,1187.2
2022-09-23T19:11:33.952Z,1199.4
2022-09-23T19:13:17.437Z,1214.8
2022-09-23T19:15:01.058Z,1229.8
2022-09-23T19:16:44.480Z,1225.5
2022-09-23T19:18:27.847Z,1225.3
2022-09-23T19:20:11.260Z,1223.4
2022-09-23T19:21:54.639Z,1224.1
2022-09-23T19:23:38.031Z,1221.5
2022-09-23T19:25:21.436Z,1222.4
2022-09-23T19:27:04.855Z,1235.2
2022-09-23T19:28:48.206Z,1240.6
2022-09-23T19:30:31.951Z,1232.5
2022-09-23T19:32:15.311Z,1222.2
2022-09-23T19:33:58.719Z,1217.7
2022-09-23T19:35:42.125Z,1223.8
2022-09-23T19:37:25.529Z,1228
2022-09-23T19:39:08.916Z,1233.2
2022-09-23T19:40:52.310Z,1234.5
2022-09-23T19:42:35.682Z,1231.6
2022-09-23T19:44:19.110Z,1236.6
2022-09-23T19:46:02.792Z,1242.2
2022-09-23T19:47:46.209Z,1245.4
2022-09-23T19:49:29.594Z,1242.7
2022-09-23T19:51:12.978Z,1237
2022-09-23T19:52:56.377Z,1230
2022-09-23T19:54:39.790Z,1228.2
2022-09-23T19:56:23.179Z,1225.4
2022-09-23T19:58:06.590Z,1221.1
2022-09-23T19:59:49.964Z,1224.3
2022-09-23T20:03:16.437Z,1225.2
2022-09-23T20:04:59.844Z,1227.6
2022-09-23T20:06:43.233Z,1230.5
2022-09-23T20:08:26.619Z,1239.2
2022-09-23T20:10:10.079Z,1234.2
2022-09-23T20:11:53.404Z,1226.2
2022-09-23T20:13:36.873Z,1225.8
2022-09-23T20:15:20.207Z,1227
2022-09-23T20:20:29.504Z,1229.5
2022-09-23T20:22:12.857Z,1228.4
2022-09-23T20:23:56.258Z,1226.1
2022-09-23T20:25:39.701Z,1223.5
2022-09-23T20:27:23.107Z,1223.4
2022-09-23T20:29:06.433Z,1222.4
2022-09-23T20:30:49.838Z,1222.2
2022-09-23T20:32:33.254Z,1224.7
2022-09-23T20:34:16.629Z,1226.1
2022-09-23T20:37:43.167Z,1223.5
2022-09-23T20:39:26.499Z,1223.6
2022-09-23T20:41:09.906Z,1226.3
2022-09-23T20:42:53.365Z,1232.7
2022-09-23T20:44:36.695Z,1248.4
2022-09-23T20:46:20.070Z,1249.7
2022-09-23T20:48:03.463Z,1245.1
2022-09-23T20:49:46.943Z,1239.4
2022-09-23T20:54:56.106Z,1235.8
2022-09-23T20:56:39.562Z,1237.2
2022-09-23T20:58:22.933Z,1243.8
2022-09-23T21:00:06.325Z,1241.3
2022-09-23T21:01:49.678Z,1237.6
2022-09-23T21:03:33.078Z,1231.1
2022-09-23T21:05:16.491Z,1230.5
2022-09-23T21:06:59.875Z,1229.2
2022-09-23T21:10:26.391Z,1221.8
2022-09-23T21:12:09.747Z,1218.6
2022-09-23T21:13:53.181Z,1216.1
2022-09-23T21:15:36.555Z,1214.5
2022-09-23T21:17:19.942Z,1214.6
2022-09-23T21:19:03.333Z,1215.2
2022-09-23T21:20:46.736Z,1214.4
2022-09-23T21:22:30.132Z,1215.1
2022-09-23T21:25:56.592Z,1211.3
2022-09-23T21:27:40.003Z,1208.8
2022-09-23T21:29:23.435Z,1204.8
2022-09-23T21:31:06.786Z,1201
2022-09-23T21:32:50.209Z,1197.6
2022-09-23T21:34:33.688Z,1194.4
2022-09-23T21:36:16.971Z,1194.6
2022-09-23T21:38:00.376Z,1196.1
2022-09-23T21:43:09.623Z,1200.2
2022-09-23T21:44:52.999Z,1203.7
2022-09-23T21:46:36.407Z,1206.5
2022-09-23T21:48:19.807Z,1208.4
2022-09-23T21:50:03.182Z,1205.5
2022-09-23T21:51:46.622Z,1205.1
2022-09-23T21:53:30.080Z,1202.8
2022-09-23T21:55:13.386Z,1197.3
2022-09-23T21:58:39.852Z,1197.2
2022-09-23T22:00:23.258Z,1194.4
2022-09-23T22:02:06.641Z,1190.6
2022-09-23T22:03:50.025Z,1192.4
2022-09-23T22:05:33.435Z,1196.5
2022-09-23T22:07:16.854Z,1201.1
2022-09-23T22:09:00.222Z,1204.5
2022-09-23T22:10:43.644Z,1210.2
2022-09-23T22:15:52.874Z,1210.9
2022-09-23T22:17:36.253Z,1211
2022-09-23T22:19:19.685Z,1211.1
2022-09-23T22:21:03.049Z,1211.2
2022-09-23T22:22:46.461Z,1212.5
2022-09-23T22:24:29.871Z,1210.1
2022-09-23T22:26:13.270Z,1205
2022-09-23T22:27:56.637Z,1201.8
2022-09-23T22:31:23.113Z,1194.6
2022-09-23T22:33:06.506Z,1189.5
2022-09-23T22:34:49.928Z,1188.2
2022-09-23T22:36:33.329Z,1180
2022-09-23T22:38:16.686Z,1174.3
2022-09-23T22:40:00.121Z,1168.8
2022-09-23T22:41:43.480Z,1167.6
2022-09-23T22:43:26.877Z,1167.1
2022-09-23T22:48:36.153Z,1163.2
2022-09-23T22:50:19.556Z,1162.8
2022-09-23T22:52:02.914Z,1160.8
2022-09-23T22:53:46.321Z,1159.4
2022-09-23T22:55:29.696Z,1157.1
2022-09-23T22:57:13.107Z,1156.5
2022-09-23T22:58:56.496Z,1150.6
2022-09-23T23:00:39.906Z,1148.5
2022-09-23T23:04:06.375Z,1141.7
2022-09-23T23:05:49.761Z,1142.5
2022-09-23T23:07:33.163Z,1143.8
2022-09-23T23:09:16.566Z,1143.7
2022-09-23T23:10:59.951Z,1143
2022-09-23T23:12:43.344Z,1142.8
2022-09-23T23:14:26.780Z,1141.2
2022-09-23T23:16:10.134Z,1137.6
2022-09-23T23:19:36.621Z,1129.1
2022-09-23T23:21:20.000Z,1128.4
2022-09-23T23:23:03.488Z,1131.5
2022-09-23T23:24:46.829Z,1132
2022-09-23T23:26:30.244Z,1130.3
2022-09-23T23:28:13.627Z,1131.5
2022-09-23T23:29:56.992Z,1130.1
2022-09-23T23:31:40.487Z,1127.3
2022-09-23T23:33:24.133Z,1126.5
2022-09-23T23:35:07.524Z,1129.8
2022-09-23T23:36:50.879Z,1130.5
2022-09-23T23:38:34.276Z,1130.1
2022-09-23T23:40:17.682Z,1129.1
2022-09-23T23:42:01.080Z,1127.2
2022-09-23T23:43:44.464Z,1128.6
2022-09-23T23:45:27.855Z,1129
2022-09-23T23:48:54.345Z,1122.1
2022-09-23T23:50:37.715Z,1117.2
2022-09-23T23:52:21.135Z,1113.2
2022-09-23T23:54:04.515Z,1110.3
2022-09-23T23:55:47.928Z,1108.8
2022-09-23T23:57:31.376Z,1108.5
2022-09-23T23:59:14.701Z,1104.2
